sensor_id;sensor_type;location;lat;lon;timestamp;pressure;altitude;pressure_sealevel;temperature;humidity
21902;BME280;11115;46.038;14.612;2024-01-30T00:01:31;100532.41;;;-3.71;100.00
21902;BME280;11115;46.038;14.612;2024-01-30T00:04:02;100520.53;;;-3.86;100.00
21902;BME280;11115;46.038;14.612;2024-01-30T00:06:32;100515.03;;;-3.60;100.00
21902;BME280;11115;46.038;14.612;2024-01-30T00:09:07;100522.25;;;-3.77;100.00
21902;BME280;11115;46.038;14.612;2024-01-30T00:11:51;100528.84;;;-3.72;100.00
21902;BME280;11115;46.038;14.612;2024-01-30T00:14:22;100526.88;;;-3.45;100.00
21902;BME280;11115;46.038;14.612;2024-01-30T00:16:55;100523.63;;;-3.49;100.00
21902;BME280;11115;46.038;14.612;2024-01-30T00:19:27;100524.66;;;-3.33;100.00
21902;BME280;11115;46.038;14.612;2024-01-30T00:22:00;100527.84;;;-3.30;100.00
21902;BME280;11115;46.038;14.612;2024-01-30T00:24:31;100530.41;;;-3.20;100.00
21902;BME280;11115;46.038;14.612;2024-01-30T00:27:07;100520.75;;;-3.31;100.00
21902;BME280;11115;46.038;14.612;2024-01-30T00:29:36;100520.44;;;-3.36;100.00
21902;BME280;11115;46.038;14.612;2024-01-30T00:32:07;100519.72;;;-3.30;100.00
21902;BME280;11115;46.038;14.612;2024-01-30T00:34:37;100526.16;;;-3.15;100.00
21902;BME280;11115;46.038;14.612;2024-01-30T00:37:12;100525.63;;;-3.10;100.00
21902;BME280;11115;46.038;14.612;2024-01-30T00:39:46;100525.50;;;-3.25;100.00
21902;BME280;11115;46.038;14.612;2024-01-30T00:42:14;100529.41;;;-3.44;100.00
21902;BME280;11115;46.038;14.612;2024-01-30T00:44:54;100525.34;;;-3.40;100.00
21902;BME280;11115;46.038;14.612;2024-01-30T00:47:25;100533.28;;;-3.14;100.00
21902;BME280;11115;46.038;14.612;2024-01-30T00:49:54;100527.69;;;-3.12;100.00
21902;BME280;11115;46.038;14.612;2024-01-30T00:52:29;100527.00;;;-3.06;100.00
21902;BME280;11115;46.038;14.612;2024-01-30T00:55:05;100529.91;;;-3.24;100.00
21902;BME280;11115;46.038;14.612;2024-01-30T00:57:44;100522.78;;;-3.49;100.00
21902;BME280;11115;46.038;14.612;2024-01-30T01:00:16;100523.47;;;-3.63;100.00
21902;BME280;11115;46.038;14.612;2024-01-30T01:02:49;100525.84;;;-3.60;100.00
21902;BME280;11115;46.038;14.612;2024-01-30T01:05:23;100530.41;;;-3.61;100.00
21902;BME280;11115;46.038;14.612;2024-01-30T01:08:07;100524.16;;;-3.61;100.00
21902;BME280;11115;46.038;14.612;2024-01-30T01:10:38;100524.66;;;-3.50;100.00
21902;BME280;11115;46.038;14.612;2024-01-30T01:13:15;100529.19;;;-3.67;100.00
21902;BME280;11115;46.038;14.612;2024-01-30T01:15:51;100525.16;;;-3.62;100.00
21902;BME280;11115;46.038;14.612;2024-01-30T01:18:31;100531.91;;;-3.67;100.00
21902;BME280;11115;46.038;14.612;2024-01-30T01:21:11;100528.69;;;-3.70;100.00
21902;BME280;11115;46.038;14.612;2024-01-30T01:23:45;100526.31;;;-3.73;100.00
21902;BME280;11115;46.038;14.612;2024-01-30T01:26:20;100528.84;;;-3.80;100.00
21902;BME280;11115;46.038;14.612;2024-01-30T01:28:53;100528.66;;;-3.94;100.00
21902;BME280;11115;46.038;14.612;2024-01-30T01:31:24;100518.63;;;-4.10;100.00
21902;BME280;11115;46.038;14.612;2024-01-30T01:34:02;100522.06;;;-4.00;100.00
21902;BME280;11115;46.038;14.612;2024-01-30T01:36:40;100514.13;;;-4.02;100.00
21902;BME280;11115;46.038;14.612;2024-01-30T01:39:16;100515.00;;;-4.43;100.00
21902;BME280;11115;46.038;14.612;2024-01-30T01:41:49;100520.53;;;-4.45;100.00
21902;BME280;11115;46.038;14.612;2024-01-30T01:44:21;100509.09;;;-4.39;100.00
21902;BME280;11115;46.038;14.612;2024-01-30T01:46:53;100513.22;;;-4.10;100.00
21902;BME280;11115;46.038;14.612;2024-01-30T01:49:30;100514.13;;;-4.02;100.00
21902;BME280;11115;46.038;14.612;2024-01-30T01:52:15;100507.31;;;-4.06;100.00
21902;BME280;11115;46.038;14.612;2024-01-30T01:54:48;100512.72;;;-4.06;100.00
21902;BME280;11115;46.038;14.612;2024-01-30T01:57:21;100508.75;;;-3.77;100.00
21902;BME280;11115;46.038;14.612;2024-01-30T01:59:51;100514.31;;;-3.79;100.00
21902;BME280;11115;46.038;14.612;2024-01-30T02:02:23;100508.16;;;-4.05;100.00
21902;BME280;11115;46.038;14.612;2024-01-30T02:04:56;100507.03;;;-3.94;100.00
21902;BME280;11115;46.038;14.612;2024-01-30T02:07:24;100508.84;;;-4.19;100.00
21902;BME280;11115;46.038;14.612;2024-01-30T02:09:59;100504.78;;;-4.07;100.00
21902;BME280;11115;46.038;14.612;2024-01-30T02:12:30;100503.25;;;-4.10;100.00
21902;BME280;11115;46.038;14.612;2024-01-30T02:15:07;100504.81;;;-3.99;100.00
21902;BME280;11115;46.038;14.612;2024-01-30T02:17:38;100393.84;;;-4.64;100.00
21902;BME280;11115;46.038;14.612;2024-01-30T02:20:17;100503.09;;;-4.08;100.00
21902;BME280;11115;46.038;14.612;2024-01-30T02:23:02;100497.63;;;-4.33;100.00
21902;BME280;11115;46.038;14.612;2024-01-30T02:25:40;100495.59;;;-4.39;100.00
21902;BME280;11115;46.038;14.612;2024-01-30T02:28:15;100495.75;;;-4.40;100.00
21902;BME280;11115;46.038;14.612;2024-01-30T02:30:49;100493.97;;;-4.07;100.00
21902;BME280;11115;46.038;14.612;2024-01-30T02:33:19;100500.22;;;-4.07;100.00
21902;BME280;11115;46.038;14.612;2024-01-30T02:35:56;100500.44;;;-3.92;100.00
21902;BME280;11115;46.038;14.612;2024-01-30T02:38:31;100501.78;;;-3.88;100.00
21902;BME280;11115;46.038;14.612;2024-01-30T02:41:03;100499.44;;;-3.83;100.00
21902;BME280;11115;46.038;14.612;2024-01-30T02:43:35;100509.59;;;-3.77;100.00
21902;BME280;11115;46.038;14.612;2024-01-30T02:46:09;100503.34;;;-3.77;100.00
21902;BME280;11115;46.038;14.612;2024-01-30T02:48:48;100509.06;;;-3.72;100.00
21902;BME280;11115;46.038;14.612;2024-01-30T02:51:30;100509.75;;;-3.70;100.00
21902;BME280;11115;46.038;14.612;2024-01-30T02:54:04;100512.63;;;-3.72;100.00
21902;BME280;11115;46.038;14.612;2024-01-30T02:56:38;100510.09;;;-3.81;100.00
21902;BME280;11115;46.038;14.612;2024-01-30T02:59:10;100502.28;;;-4.01;100.00
21902;BME280;11115;46.038;14.612;2024-01-30T03:01:43;100507.72;;;-3.84;100.00
21902;BME280;11115;46.038;14.612;2024-01-30T03:04:22;100499.59;;;-3.92;100.00
21902;BME280;11115;46.038;14.612;2024-01-30T03:07:27;100507.47;;;-4.23;100.00
21902;BME280;11115;46.038;14.612;2024-01-30T03:10:06;100502.53;;;-4.36;100.00
21902;BME280;11115;46.038;14.612;2024-01-30T03:12:37;100498.81;;;-4.35;100.00
21902;BME280;11115;46.038;14.612;2024-01-30T03:15:24;100492.56;;;-4.28;100.00
21902;BME280;11115;46.038;14.612;2024-01-30T03:17:55;100489.00;;;-4.36;100.00
21902;BME280;11115;46.038;14.612;2024-01-30T03:20:27;100487.84;;;-4.34;100.00
21902;BME280;11115;46.038;14.612;2024-01-30T03:23:06;100486.97;;;-4.42;100.00
21902;BME280;11115;46.038;14.612;2024-01-30T03:25:39;100494.94;;;-4.24;100.00
21902;BME280;11115;46.038;14.612;2024-01-30T03:28:31;100479.28;;;-4.13;100.00
21902;BME280;11115;46.038;14.612;2024-01-30T03:31:06;100408.06;;;-4.54;100.00
21902;BME280;11115;46.038;14.612;2024-01-30T03:33:39;100487.88;;;-4.17;100.00
21902;BME280;11115;46.038;14.612;2024-01-30T03:36:13;100484.28;;;-4.34;100.00
21902;BME280;11115;46.038;14.612;2024-01-30T03:38:45;100480.28;;;-4.22;100.00
21902;BME280;11115;46.038;14.612;2024-01-30T03:41:19;100487.50;;;-4.39;100.00
21902;BME280;11115;46.038;14.612;2024-01-30T03:43:50;100484.41;;;-4.44;100.00
21902;BME280;11115;46.038;14.612;2024-01-30T03:46:21;100480.19;;;-4.46;100.00
21902;BME280;11115;46.038;14.612;2024-01-30T03:48:55;100483.88;;;-4.55;100.00
21902;BME280;11115;46.038;14.612;2024-01-30T03:51:40;100484.13;;;-4.75;100.00
21902;BME280;11115;46.038;14.612;2024-01-30T03:54:17;100484.47;;;-4.70;100.00
21902;BME280;11115;46.038;14.612;2024-01-30T03:56:55;100492.47;;;-4.60;100.00
21902;BME280;11115;46.038;14.612;2024-01-30T03:59:30;100486.56;;;-4.55;100.00
21902;BME280;11115;46.038;14.612;2024-01-30T04:01:58;100490.41;;;-4.66;100.00
21902;BME280;11115;46.038;14.612;2024-01-30T04:04:32;100489.19;;;-4.80;100.00
21902;BME280;11115;46.038;14.612;2024-01-30T04:07:05;100477.56;;;-4.72;100.00
21902;BME280;11115;46.038;14.612;2024-01-30T04:09:48;100483.31;;;-4.67;100.00
21902;BME280;11115;46.038;14.612;2024-01-30T04:12:18;100486.38;;;-4.62;100.00
21902;BME280;11115;46.038;14.612;2024-01-30T04:14:56;100495.63;;;-4.73;100.00
21902;BME280;11115;46.038;14.612;2024-01-30T04:17:28;100496.47;;;-4.72;100.00
21902;BME280;11115;46.038;14.612;2024-01-30T04:20:03;100493.94;;;-4.66;100.00
21902;BME280;11115;46.038;14.612;2024-01-30T04:22:33;100487.91;;;-4.60;100.00
21902;BME280;11115;46.038;14.612;2024-01-30T04:25:15;100481.56;;;-4.42;100.00
21902;BME280;11115;46.038;14.612;2024-01-30T04:27:48;100484.84;;;-4.22;100.00
21902;BME280;11115;46.038;14.612;2024-01-30T04:30:25;100480.78;;;-4.18;100.00
21902;BME280;11115;46.038;14.612;2024-01-30T04:33:03;100483.63;;;-4.28;100.00
21902;BME280;11115;46.038;14.612;2024-01-30T04:35:40;100476.41;;;-4.19;100.00
21902;BME280;11115;46.038;14.612;2024-01-30T04:38:18;100478.97;;;-4.02;100.00
21902;BME280;11115;46.038;14.612;2024-01-30T04:40:48;100474.19;;;-4.08;100.00
21902;BME280;11115;46.038;14.612;2024-01-30T04:43:17;100477.41;;;-4.20;100.00
21902;BME280;11115;46.038;14.612;2024-01-30T04:45:56;100411.91;;;-4.65;100.00
21902;BME280;11115;46.038;14.612;2024-01-30T04:48:28;100477.56;;;-4.14;100.00
21902;BME280;11115;46.038;14.612;2024-01-30T04:51:05;100478.59;;;-4.15;100.00
21902;BME280;11115;46.038;14.612;2024-01-30T04:53:36;100486.13;;;-4.43;100.00
21902;BME280;11115;46.038;14.612;2024-01-30T04:56:14;100484.91;;;-4.48;100.00
21902;BME280;11115;46.038;14.612;2024-01-30T04:58:47;100484.94;;;-4.40;100.00
21902;BME280;11115;46.038;14.612;2024-01-30T05:01:19;100493.22;;;-4.42;100.00
21902;BME280;11115;46.038;14.612;2024-01-30T05:04:11;100497.97;;;-4.28;100.00
21902;BME280;11115;46.038;14.612;2024-01-30T05:06:54;100496.78;;;-4.25;100.00
21902;BME280;11115;46.038;14.612;2024-01-30T05:09:27;100504.09;;;-4.09;100.00
21902;BME280;11115;46.038;14.612;2024-01-30T05:12:03;100501.06;;;-4.06;100.00
21902;BME280;11115;46.038;14.612;2024-01-30T05:14:37;100501.28;;;-4.00;100.00
21902;BME280;11115;46.038;14.612;2024-01-30T05:17:17;100505.97;;;-4.10;100.00
21902;BME280;11115;46.038;14.612;2024-01-30T05:19:51;100500.72;;;-4.19;100.00
21902;BME280;11115;46.038;14.612;2024-01-30T05:22:23;100505.75;;;-4.33;100.00
21902;BME280;11115;46.038;14.612;2024-01-30T05:24:57;100503.69;;;-4.39;100.00
21902;BME280;11115;46.038;14.612;2024-01-30T05:27:32;100511.03;;;-4.07;100.00
21902;BME280;11115;46.038;14.612;2024-01-30T05:30:05;100509.78;;;-4.37;100.00
21902;BME280;11115;46.038;14.612;2024-01-30T05:32:39;100513.78;;;-4.49;100.00
21902;BME280;11115;46.038;14.612;2024-01-30T05:35:14;100517.41;;;-4.66;100.00
21902;BME280;11115;46.038;14.612;2024-01-30T05:37:48;100514.09;;;-4.52;100.00
21902;BME280;11115;46.038;14.612;2024-01-30T05:40:22;100513.44;;;-4.46;100.00
21902;BME280;11115;46.038;14.612;2024-01-30T05:42:56;100512.72;;;-4.22;100.00
21902;BME280;11115;46.038;14.612;2024-01-30T05:45:33;100516.28;;;-4.05;100.00
21902;BME280;11115;46.038;14.612;2024-01-30T05:48:05;100517.31;;;-3.98;100.00
21902;BME280;11115;46.038;14.612;2024-01-30T05:50:39;100518.84;;;-4.04;100.00
21902;BME280;11115;46.038;14.612;2024-01-30T05:53:24;100513.28;;;-4.02;100.00
21902;BME280;11115;46.038;14.612;2024-01-30T05:56:05;100521.66;;;-4.21;100.00
21902;BME280;11115;46.038;14.612;2024-01-30T05:58:52;100520.19;;;-4.00;100.00
21902;BME280;11115;46.038;14.612;2024-01-30T06:01:25;100510.53;;;-4.10;100.00
21902;BME280;11115;46.038;14.612;2024-01-30T06:04:05;100518.00;;;-4.04;100.00
21902;BME280;11115;46.038;14.612;2024-01-30T06:06:38;100516.94;;;-4.11;100.00
21902;BME280;11115;46.038;14.612;2024-01-30T06:09:09;100514.56;;;-4.22;100.00
21902;BME280;11115;46.038;14.612;2024-01-30T06:11:45;100518.75;;;-4.28;100.00
21902;BME280;11115;46.038;14.612;2024-01-30T06:14:22;100519.19;;;-4.49;100.00
21902;BME280;11115;46.038;14.612;2024-01-30T06:16:55;100519.19;;;-4.49;100.00
21902;BME280;11115;46.038;14.612;2024-01-30T06:19:38;100515.13;;;-4.45;100.00
21902;BME280;11115;46.038;14.612;2024-01-30T06:22:12;100525.16;;;-4.37;100.00
21902;BME280;11115;46.038;14.612;2024-01-30T06:24:45;100526.19;;;-4.30;100.00
21902;BME280;11115;46.038;14.612;2024-01-30T06:27:21;100524.66;;;-4.24;100.00
21902;BME280;11115;46.038;14.612;2024-01-30T06:29:51;100524.88;;;-4.18;100.00
21902;BME280;11115;46.038;14.612;2024-01-30T06:32:19;100521.00;;;-4.23;100.00
21902;BME280;11115;46.038;14.612;2024-01-30T06:34:57;100524.53;;;-4.23;100.00
21902;BME280;11115;46.038;14.612;2024-01-30T06:37:31;100529.78;;;-4.13;100.00
21902;BME280;11115;46.038;14.612;2024-01-30T06:40:06;100529.28;;;-4.17;100.00
21902;BME280;11115;46.038;14.612;2024-01-30T06:42:51;100532.47;;;-4.21;100.00
21902;BME280;11115;46.038;14.612;2024-01-30T06:45:24;100538.56;;;-4.11;100.00
21902;BME280;11115;46.038;14.612;2024-01-30T06:47:59;100538.28;;;-4.00;100.00
21902;BME280;11115;46.038;14.612;2024-01-30T06:50:35;100536.44;;;-4.00;100.00
21902;BME280;11115;46.038;14.612;2024-01-30T06:53:07;100542.69;;;-3.99;100.00
21902;BME280;11115;46.038;14.612;2024-01-30T06:55:59;100537.63;;;-3.86;100.00
21902;BME280;11115;46.038;14.612;2024-01-30T06:58:41;100540.81;;;-3.90;100.00
21902;BME280;11115;46.038;14.612;2024-01-30T07:01:20;100537.44;;;-4.01;100.00
21902;BME280;11115;46.038;14.612;2024-01-30T07:03:57;100543.72;;;-3.84;100.00
21902;BME280;11115;46.038;14.612;2024-01-30T07:06:33;100549.34;;;-3.61;100.00
21902;BME280;11115;46.038;14.612;2024-01-30T07:09:19;100539.53;;;-3.54;100.00
21902;BME280;11115;46.038;14.612;2024-01-30T07:11:53;100552.00;;;-3.85;100.00
21902;BME280;11115;46.038;14.612;2024-01-30T07:14:24;100550.13;;;-3.93;100.00
21902;BME280;11115;46.038;14.612;2024-01-30T07:17:00;100548.09;;;-3.99;100.00
21902;BME280;11115;46.038;14.612;2024-01-30T07:19:33;100549.91;;;-4.08;100.00
21902;BME280;11115;46.038;14.612;2024-01-30T07:22:04;100557.84;;;-4.06;100.00
21902;BME280;11115;46.038;14.612;2024-01-30T07:24:35;100553.53;;;-3.83;100.00
21902;BME280;11115;46.038;14.612;2024-01-30T07:27:09;100549.44;;;-3.87;100.00
21902;BME280;11115;46.038;14.612;2024-01-30T07:29:54;100552.88;;;-3.69;100.00
21902;BME280;11115;46.038;14.612;2024-01-30T07:32:32;100550.00;;;-3.51;100.00
21902;BME280;11115;46.038;14.612;2024-01-30T07:35:04;100551.03;;;-3.52;100.00
21902;BME280;11115;46.038;14.612;2024-01-30T07:37:39;100552.38;;;-3.48;100.00
21902;BME280;11115;46.038;14.612;2024-01-30T07:40:11;100549.69;;;-3.40;100.00
21902;BME280;11115;46.038;14.612;2024-01-30T07:42:46;100553.25;;;-3.31;100.00
21902;BME280;11115;46.038;14.612;2024-01-30T07:45:27;100549.53;;;-3.46;100.00
21902;BME280;11115;46.038;14.612;2024-01-30T07:48:09;100552.41;;;-3.40;100.00
21902;BME280;11115;46.038;14.612;2024-01-30T07:50:47;100555.63;;;-3.44;100.00
21902;BME280;11115;46.038;14.612;2024-01-30T07:53:22;100550.69;;;-3.49;100.00
21902;BME280;11115;46.038;14.612;2024-01-30T07:56:05;100555.97;;;-3.23;100.00
21902;BME280;11115;46.038;14.612;2024-01-30T07:58:35;100554.94;;;-3.06;100.00
21902;BME280;11115;46.038;14.612;2024-01-30T08:01:09;100549.84;;;-3.00;100.00
21902;BME280;11115;46.038;14.612;2024-01-30T08:03:46;100550.53;;;-2.98;100.00
21902;BME280;11115;46.038;14.612;2024-01-30T08:06:17;100550.00;;;-3.10;100.00
21902;BME280;11115;46.038;14.612;2024-01-30T08:08:56;100544.28;;;-3.23;100.00
21902;BME280;11115;46.038;14.612;2024-01-30T08:11:27;100553.41;;;-3.16;100.00
21902;BME280;11115;46.038;14.612;2024-01-30T08:13:57;100549.34;;;-3.04;100.00
21902;BME280;11115;46.038;14.612;2024-01-30T08:16:31;100545.06;;;-2.90;100.00
21902;BME280;11115;46.038;14.612;2024-01-30T08:19:15;100533.91;;;-2.95;100.00
21902;BME280;11115;46.038;14.612;2024-01-30T08:21:54;100543.03;;;-2.80;100.00
21902;BME280;11115;46.038;14.612;2024-01-30T08:24:27;100545.91;;;-2.73;100.00
21902;BME280;11115;46.038;14.612;2024-01-30T08:26:59;100546.94;;;-2.91;100.00
21902;BME280;11115;46.038;14.612;2024-01-30T08:29:31;100545.63;;;-3.03;100.00
21902;BME280;11115;46.038;14.612;2024-01-30T08:32:01;100545.44;;;-2.93;100.00
21902;BME280;11115;46.038;14.612;2024-01-30T08:34:51;100540.34;;;-2.80;100.00
21902;BME280;11115;46.038;14.612;2024-01-30T08:37:27;100543.47;;;-2.52;100.00
21902;BME280;11115;46.038;14.612;2024-01-30T08:39:59;100534.66;;;-2.46;100.00
21902;BME280;11115;46.038;14.612;2024-01-30T08:42:37;100543.59;;;-2.37;100.00
21902;BME280;11115;46.038;14.612;2024-01-30T08:46:00;100534.91;;;-2.33;100.00
21902;BME280;11115;46.038;14.612;2024-01-30T08:51:28;100543.06;;;-2.33;100.00
21902;BME280;11115;46.038;14.612;2024-01-30T08:54:02;100527.63;;;-2.24;100.00
21902;BME280;11115;46.038;14.612;2024-01-30T08:56:34;100536.59;;;-2.24;100.00
21902;BME280;11115;46.038;14.612;2024-01-30T08:59:12;100525.22;;;-2.19;100.00
21902;BME280;11115;46.038;14.612;2024-01-30T09:01:44;100531.88;;;-1.99;100.00
21902;BME280;11115;46.038;14.612;2024-01-30T09:04:55;100533.56;;;-1.98;100.00
21902;BME280;11115;46.038;14.612;2024-01-30T09:07:25;100531.34;;;-1.94;100.00
21902;BME280;11115;46.038;14.612;2024-01-30T09:10:04;100527.03;;;-1.80;100.00
21902;BME280;11115;46.038;14.612;2024-01-30T09:12:46;100528.91;;;-1.81;100.00
21902;BME280;11115;46.038;14.612;2024-01-30T09:15:25;100529.56;;;-1.79;100.00
21902;BME280;11115;46.038;14.612;2024-01-30T09:17:58;100523.81;;;-1.53;100.00
21902;BME280;11115;46.038;14.612;2024-01-30T09:20:31;100519.31;;;-1.46;100.00
21902;BME280;11115;46.038;14.612;2024-01-30T09:23:15;100525.09;;;-1.26;100.00
21902;BME280;11115;46.038;14.612;2024-01-30T09:25:52;100516.31;;;-1.51;100.00
21902;BME280;11115;46.038;14.612;2024-01-30T09:28:31;100519.31;;;-1.46;100.00
21902;BME280;11115;46.038;14.612;2024-01-30T09:31:09;100512.28;;;-1.32;100.00
21902;BME280;11115;46.038;14.612;2024-01-30T09:33:48;100515.31;;;-1.12;100.00
21902;BME280;11115;46.038;14.612;2024-01-30T09:36:24;100520.66;;;-1.04;100.00
21902;BME280;11115;46.038;14.612;2024-01-30T09:39:03;100515.97;;;-1.10;100.00
21902;BME280;11115;46.038;14.612;2024-01-30T09:41:36;100508.97;;;-0.90;100.00
21902;BME280;11115;46.038;14.612;2024-01-30T09:44:17;100513.03;;;-0.71;100.00
21902;BME280;11115;46.038;14.612;2024-01-30T09:46:56;100508.91;;;-0.67;100.00
21902;BME280;11115;46.038;14.612;2024-01-30T09:49:43;100503.00;;;-0.71;100.00
21902;BME280;11115;46.038;14.612;2024-01-30T09:52:13;100509.75;;;-0.67;100.00
21902;BME280;11115;46.038;14.612;2024-01-30T09:54:46;100504.47;;;-0.83;100.00
21902;BME280;11115;46.038;14.612;2024-01-30T09:57:21;100495.59;;;-0.62;100.00
21902;BME280;11115;46.038;14.612;2024-01-30T09:59:53;100502.63;;;-0.53;100.00
21902;BME280;11115;46.038;14.612;2024-01-30T10:02:23;100495.91;;;-0.21;100.00
21902;BME280;11115;46.038;14.612;2024-01-30T10:04:57;100492.03;;;0.03;100.00
21902;BME280;11115;46.038;14.612;2024-01-30T10:07:55;100492.31;;;0.08;100.00
21902;BME280;11115;46.038;14.612;2024-01-30T10:10:40;100484.22;;;0.36;100.00
21902;BME280;11115;46.038;14.612;2024-01-30T10:13:13;100484.84;;;0.38;100.00
21902;BME280;11115;46.038;14.612;2024-01-30T10:15:50;100484.88;;;0.59;100.00
21902;BME280;11115;46.038;14.612;2024-01-30T10:18:23;100478.97;;;0.56;100.00
21902;BME280;11115;46.038;14.612;2024-01-30T10:21:01;100481.91;;;1.10;100.00
21902;BME280;11115;46.038;14.612;2024-01-30T10:23:30;100485.69;;;1.37;100.00
21902;BME280;11115;46.038;14.612;2024-01-30T10:26:03;100474.41;;;1.53;100.00
21902;BME280;11115;46.038;14.612;2024-01-30T10:28:40;100469.84;;;1.61;100.00
21902;BME280;11115;46.038;14.612;2024-01-30T10:31:16;100376.97;;;0.93;100.00
21902;BME280;11115;46.038;14.612;2024-01-30T10:33:50;100463.88;;;1.92;100.00
21902;BME280;11115;46.038;14.612;2024-01-30T10:36:45;100465.53;;;1.79;100.00
21902;BME280;11115;46.038;14.612;2024-01-30T10:39:28;100456.59;;;2.05;100.00
21902;BME280;11115;46.038;14.612;2024-01-30T10:42:02;100454.16;;;2.37;100.00
21902;BME280;11115;46.038;14.612;2024-01-30T10:45:00;100445.56;;;2.73;100.00
21902;BME280;11115;46.038;14.612;2024-01-30T10:47:37;100443.59;;;3.33;100.00
21902;BME280;11115;46.038;14.612;2024-01-30T10:50:16;100429.38;;;2.91;100.00
21902;BME280;11115;46.038;14.612;2024-01-30T10:52:54;100425.31;;;3.14;100.00
21902;BME280;11115;46.038;14.612;2024-01-30T10:55:26;100430.91;;;3.45;100.00
21902;BME280;11115;46.038;14.612;2024-01-30T10:58:07;100425.50;;;3.83;100.00
21902;BME280;11115;46.038;14.612;2024-01-30T11:00:40;100417.88;;;3.41;100.00
21902;BME280;11115;46.038;14.612;2024-01-30T11:03:16;100415.50;;;3.57;100.00
21902;BME280;11115;46.038;14.612;2024-01-30T11:05:58;100408.44;;;3.88;100.00
21902;BME280;11115;46.038;14.612;2024-01-30T11:08:34;100401.06;;;4.76;100.00
21902;BME280;11115;46.038;14.612;2024-01-30T11:11:10;100397.88;;;4.54;100.00
21902;BME280;11115;46.038;14.612;2024-01-30T11:13:47;100393.91;;;4.50;100.00
21902;BME280;11115;46.038;14.612;2024-01-30T11:16:30;100389.06;;;4.96;100.00
21902;BME280;11115;46.038;14.612;2024-01-30T11:19:01;100385.03;;;4.98;100.00
21902;BME280;11115;46.038;14.612;2024-01-30T11:21:34;100375.50;;;4.82;100.00
21902;BME280;11115;46.038;14.612;2024-01-30T11:24:25;100371.28;;;5.71;100.00
21902;BME280;11115;46.038;14.612;2024-01-30T11:26:58;100372.16;;;5.54;100.00
21902;BME280;11115;46.038;14.612;2024-01-30T11:29:34;100369.97;;;5.44;100.00
21902;BME280;11115;46.038;14.612;2024-01-30T11:32:09;100364.19;;;5.82;100.00
21902;BME280;11115;46.038;14.612;2024-01-30T11:34:40;100362.06;;;5.84;100.00
21902;BME280;11115;46.038;14.612;2024-01-30T11:37:13;100360.44;;;5.76;100.00
21902;BME280;11115;46.038;14.612;2024-01-30T11:39:45;100354.53;;;6.09;100.00
21902;BME280;11115;46.038;14.612;2024-01-30T11:42:30;100350.81;;;6.04;100.00
21902;BME280;11115;46.038;14.612;2024-01-30T11:45:07;100346.72;;;6.36;100.00
21902;BME280;11115;46.038;14.612;2024-01-30T11:47:52;100348.31;;;6.56;100.00
21902;BME280;11115;46.038;14.612;2024-01-30T11:50:33;100334.53;;;7.95;100.00
21902;BME280;11115;46.038;14.612;2024-01-30T11:53:04;100335.50;;;10.10;100.00
21902;BME280;11115;46.038;14.612;2024-01-30T11:55:38;100328.28;;;11.58;100.00
21902;BME280;11115;46.038;14.612;2024-01-30T11:58:15;100341.28;;;11.00;100.00
21902;BME280;11115;46.038;14.612;2024-01-30T12:00:55;100328.03;;;9.40;100.00
21902;BME280;11115;46.038;14.612;2024-01-30T12:03:29;100321.75;;;10.47;100.00
21902;BME280;11115;46.038;14.612;2024-01-30T12:06:03;100320.22;;;9.81;100.00
21902;BME280;11115;46.038;14.612;2024-01-30T12:08:34;100317.28;;;9.22;100.00
21902;BME280;11115;46.038;14.612;2024-01-30T12:11:06;100303.81;;;10.55;100.00
21902;BME280;11115;46.038;14.612;2024-01-30T12:13:37;100300.72;;;12.03;100.00
21902;BME280;11115;46.038;14.612;2024-01-30T12:16:15;100289.63;;;11.31;100.00
21902;BME280;11115;46.038;14.612;2024-01-30T12:18:47;100288.25;;;13.67;99.69
21902;BME280;11115;46.038;14.612;2024-01-30T12:21:23;100281.56;;;14.17;78.24
21902;BME280;11115;46.038;14.612;2024-01-30T12:23:54;100275.63;;;10.58;100.00
21902;BME280;11115;46.038;14.612;2024-01-30T12:26:32;100270.78;;;12.15;100.00
21902;BME280;11115;46.038;14.612;2024-01-30T12:29:16;100262.41;;;11.85;100.00
21902;BME280;11115;46.038;14.612;2024-01-30T12:31:46;100263.31;;;14.01;95.16
21902;BME280;11115;46.038;14.612;2024-01-30T12:34:18;100273.66;;;14.35;86.25
21902;BME280;11115;46.038;14.612;2024-01-30T12:36:53;100254.88;;;14.79;76.60
21902;BME280;11115;46.038;14.612;2024-01-30T12:39:28;100262.72;;;14.48;76.71
21902;BME280;11115;46.038;14.612;2024-01-30T12:42:04;100254.44;;;15.87;73.77
21902;BME280;11115;46.038;14.612;2024-01-30T12:44:37;100250.75;;;18.35;60.88
21902;BME280;11115;46.038;14.612;2024-01-30T12:47:08;100251.81;;;16.47;59.46
21902;BME280;11115;46.038;14.612;2024-01-30T12:49:43;100256.31;;;18.12;54.90
21902;BME280;11115;46.038;14.612;2024-01-30T12:52:21;100259.94;;;17.49;54.36
21902;BME280;11115;46.038;14.612;2024-01-30T12:54:55;100248.66;;;17.13;56.25
21902;BME280;11115;46.038;14.612;2024-01-30T12:57:28;100253.44;;;17.40;52.54
21902;BME280;11115;46.038;14.612;2024-01-30T13:00:01;100242.63;;;20.49;48.83
21902;BME280;11115;46.038;14.612;2024-01-30T13:02:38;100238.41;;;18.58;47.96
21902;BME280;11115;46.038;14.612;2024-01-30T13:05:08;100245.94;;;16.94;53.97
21902;BME280;11115;46.038;14.612;2024-01-30T13:07:43;100236.72;;;16.94;55.45
21902;BME280;11115;46.038;14.612;2024-01-30T13:10:26;100234.22;;;15.76;56.42
21902;BME280;11115;46.038;14.612;2024-01-30T13:12:56;100242.47;;;13.98;63.28
21902;BME280;11115;46.038;14.612;2024-01-30T13:15:41;100227.19;;;15.78;59.02
21902;BME280;11115;46.038;14.612;2024-01-30T13:18:16;100227.69;;;14.37;61.40
21902;BME280;11115;46.038;14.612;2024-01-30T13:20:51;100228.34;;;15.11;64.90